Time;durP1;ratioP1;P1;durP2;ratioP2;P2;SDS_P1;SDS_P2;PMS_P1;PMS_P2;Temp;Humidity;BMP_temperature;BMP_pressure;BME280_temperature;BME280_humidity;BME280_pressure;Samples;Min_cycle;Max_cycle;Signal;HPM_P1;HPM_P2
2022/10/15 00:01:59;;;;;;;8.70;4.70;;;;;;;-141.28;100.00;49341.13;5105940;27;20234;-79
2022/10/15 00:04:26;;;;;;;8.43;4.37;;;;;;;-141.28;100.00;49313.66;5132260;27;20202;-77
2022/10/15 00:06:54;;;;;;;8.43;3.90;;;;;;;-141.28;100.00;49329.34;5133110;27;20225;-78
2022/10/15 00:09:21;;;;;;;7.53;3.93;;;;;;;-141.28;100.00;49337.19;5132542;27;20234;-76
2022/10/15 00:11:50;;;;;;;6.67;4.23;;;;;;;-141.28;100.00;49309.72;5114573;27;20206;-76
2022/10/15 00:14:17;;;;;;;8.93;3.97;;;;;;;-141.28;100.00;49303.84;5132526;27;20198;-75
2022/10/15 00:16:44;;;;;;;6.07;3.77;;;;;;;-141.28;100.00;49243.00;5132463;27;20257;-78
2022/10/15 00:19:11;;;;;;;7.47;4.70;;;;;;;-141.28;100.00;49258.69;5132518;27;20275;-80
2022/10/15 00:21:39;;;;;;;11.13;4.60;;;;;;;-141.28;100.00;49286.16;5132403;28;20244;-76
2022/10/15 00:24:08;;;;;;;8.73;4.47;;;;;;;-141.28;100.00;49250.84;5132275;28;20206;-78
2022/10/15 00:26:35;;;;;;;8.70;4.53;;;;;;;-141.28;100.00;49235.16;5132860;28;20195;-78
2022/10/15 00:29:03;;;;;;;9.77;4.10;;;;;;;-141.28;100.00;49211.59;5132505;28;20201;-76
2022/10/15 00:31:32;;;;;;;8.30;4.03;;;;;;;-141.28;100.00;49197.88;5132584;28;20202;-80
2022/10/15 00:34:01;;;;;;;4.83;3.70;;;;;;;-141.28;100.00;49221.41;5132625;28;20254;-76
2022/10/15 00:36:30;;;;;;;6.77;3.80;;;;;;;-141.28;100.00;49221.41;5133377;28;20199;-76
2022/10/15 00:38:57;;;;;;;7.30;4.40;;;;;;;-141.28;100.00;49215.53;5132382;28;20229;-78
2022/10/15 00:41:29;;;;;;;7.53;3.80;;;;;;;-141.28;100.00;49231.22;5132404;27;20711;-79
2022/10/15 00:43:58;;;;;;;4.63;3.57;;;;;;;-141.28;100.00;49211.59;5136036;27;20246;-79
2022/10/15 00:46:28;;;;;;;5.60;4.20;;;;;;;-141.28;100.00;49207.69;5137351;27;20198;-77
2022/10/15 00:48:58;;;;;;;5.90;3.93;;;;;;;-141.28;100.00;49213.56;5136848;27;20209;-78
2022/10/15 00:51:30;;;;;;;6.00;4.10;;;;;;;-141.28;100.00;49184.13;5136489;27;20204;-77
2022/10/15 00:53:57;;;;;;;5.73;3.90;;;;;;;-141.28;100.00;49197.88;5136966;27;20228;-77
2022/10/15 00:56:31;;;;;;;6.43;3.97;;;;;;;-141.28;100.00;49188.06;5136374;27;20198;-79
2022/10/15 00:58:59;;;;;;;4.67;3.60;;;;;;;-141.28;100.00;49207.69;5136206;27;20218;-77
2022/10/15 01:01:26;;;;;;;5.83;3.83;;;;;;;-141.28;100.00;49209.66;5136005;27;20194;-78
2022/10/15 01:03:54;;;;;;;4.53;3.80;;;;;;;-141.28;100.00;49188.06;5136329;27;20194;-79
2022/10/15 01:06:22;;;;;;;8.20;4.33;;;;;;;-141.28;100.00;49199.84;5136286;27;20229;-77
2022/10/15 01:08:48;;;;;;;6.87;3.97;;;;;;;-141.28;100.00;49207.69;5135924;27;20245;-78
2022/10/15 01:11:30;;;;;;;7.00;4.13;;;;;;;-141.28;100.00;49195.91;5136756;27;20209;-77
2022/10/15 01:14:05;;;;;;;8.10;4.30;;;;;;;-141.28;100.00;49254.78;5137248;27;20202;-76
2022/10/15 01:16:40;;;;;;;10.00;4.00;;;;;;;-141.28;100.00;49262.63;5137176;27;20210;-78
2022/10/15 01:19:21;;;;;;;9.90;4.00;;;;;;;-141.28;100.00;49256.75;5137000;27;20221;-77
2022/10/15 01:21:56;;;;;;;7.27;4.00;;;;;;;-141.28;100.00;49282.25;5136592;27;20202;-75
2022/10/15 01:24:44;;;;;;;5.67;4.20;;;;;;;-141.28;100.00;49268.50;5136857;27;20208;-78
2022/10/15 01:27:29;;;;;;;5.07;4.00;;;;;;;-141.28;100.00;49282.25;5134342;27;20198;-76
2022/10/15 01:30:07;;;;;;;5.43;4.13;;;;;;;-141.28;100.00;49239.09;5136037;27;20209;-79
2022/10/15 01:32:41;;;;;;;10.03;4.90;;;;;;;-141.28;100.00;49227.31;5136041;27;20672;-76
2022/10/15 01:35:17;;;;;;;7.50;4.27;;;;;;;-141.28;100.00;49231.22;5141964;27;20198;-75
2022/10/15 01:37:52;;;;;;;7.83;4.50;;;;;;;-141.28;100.00;49239.09;5142950;27;20623;-75
2022/10/15 01:40:24;;;;;;;7.33;4.50;;;;;;;-141.28;100.00;49239.09;5140194;27;20216;-75
2022/10/15 01:42:57;;;;;;;7.80;4.27;;;;;;;-141.28;100.00;49227.31;5143918;27;20194;-75
2022/10/15 01:45:32;;;;;;;7.67;4.27;;;;;;;-141.28;100.00;49219.47;5140377;27;20198;-79
2022/10/15 01:48:05;;;;;;;9.87;5.17;;;;;;;-141.28;100.00;49231.22;5135708;27;20650;-79
2022/10/15 01:50:34;;;;;;;10.57;5.70;;;;;;;-141.28;100.00;49231.22;5135374;27;20617;-79
2022/10/15 01:53:04;;;;;;;12.03;6.20;;;;;;;-141.28;100.00;49227.31;5135757;27;20737;-77
2022/10/15 01:55:33;;;;;;;8.27;5.93;;;;;;;-141.28;100.00;49260.66;5134496;27;20194;-79
2022/10/15 01:58:02;;;;;;;9.13;6.20;;;;;;;-141.28;100.00;49262.63;5136191;27;20238;-80
2022/10/15 02:03:11;;;;;;;7.13;5.73;;;;;;;-141.28;100.00;49278.31;5134781;27;20202;-76
2022/10/15 02:05:45;;;;;;;7.63;4.57;;;;;;;-141.28;100.00;49248.88;5135413;27;20198;-81
2022/10/15 02:08:19;;;;;;;10.43;5.10;;;;;;;-141.28;100.00;49260.66;5134667;27;20273;-76
2022/10/15 02:10:53;;;;;;;8.70;5.00;;;;;;;-141.28;100.00;49221.41;5135143;27;20664;-76
2022/10/15 02:13:28;;;;;;;6.43;4.77;;;;;;;-141.28;100.00;49258.69;5135437;27;20201;-79
2022/10/15 02:16:04;;;;;;;9.67;5.03;;;;;;;-141.28;100.00;49235.16;5134707;27;20610;-76
2022/10/15 02:18:39;;;;;;;10.13;5.10;;;;;;;-141.28;100.00;49215.53;5134324;27;20222;-77
2022/10/15 02:21:11;;;;;;;7.40;4.20;;;;;;;-141.28;100.00;49215.53;5135374;27;20206;-78
2022/10/15 02:23:46;;;;;;;8.07;5.37;;;;;;;-141.28;100.00;49219.47;5134348;27;20590;-77
2022/10/15 02:26:15;;;;;;;10.73;5.30;;;;;;;-141.28;100.00;49176.28;5135451;27;20202;-77
2022/10/15 02:28:47;;;;;;;5.63;4.27;;;;;;;-141.28;100.00;49188.06;5135014;27;20635;-77
2022/10/15 02:31:17;;;;;;;10.30;4.57;;;;;;;-141.28;100.00;49211.59;5134547;27;20684;-76
2022/10/15 02:33:46;;;;;;;7.63;4.67;;;;;;;-141.28;100.00;49176.28;5135150;27;20293;-78
2022/10/15 02:36:14;;;;;;;10.50;4.67;;;;;;;-141.28;100.00;49227.31;5134546;27;20202;-80
2022/10/15 02:38:45;;;;;;;7.23;5.60;;;;;;;-141.28;100.00;49144.91;5121222;27;20218;-75
2022/10/15 02:41:14;;;;;;;9.57;5.37;;;;;;;-141.28;100.00;49197.88;5134632;27;20206;-76
2022/10/15 02:43:41;;;;;;;12.83;5.07;;;;;;;-141.28;100.00;49243.00;5134173;27;20206;-76
2022/10/15 02:46:11;;;;;;;9.27;4.60;;;;;;;-141.28;100.00;49246.94;5134622;27;20202;-77
2022/10/15 02:48:38;;;;;;;6.33;4.40;;;;;;;-141.28;100.00;49268.50;5135353;27;20205;-75
2022/10/15 02:51:07;;;;;;;9.10;4.47;;;;;;;-141.28;100.00;49264.59;5135215;27;20198;-76
2022/10/15 02:53:34;;;;;;;7.40;4.67;;;;;;;-141.28;100.00;49248.88;5133578;27;20246;-77
2022/10/15 02:56:01;;;;;;;8.33;4.63;;;;;;;-141.28;100.00;49266.56;5133821;27;20217;-76
2022/10/15 02:58:29;;;;;;;7.50;4.40;;;;;;;-141.28;100.00;49274.41;5133980;27;20234;-77
2022/10/15 03:00:57;;;;;;;6.40;4.37;;;;;;;-141.28;100.00;49286.16;5134619;27;20199;-80
2022/10/15 03:03:24;;;;;;;7.10;5.00;;;;;;;-141.28;100.00;49286.16;5134128;27;20281;-79
2022/10/15 03:05:51;;;;;;;7.40;4.67;;;;;;;-141.28;100.00;49290.09;5134458;27;20574;-79
2022/10/15 03:08:19;;;;;;;8.90;4.63;;;;;;;-141.28;100.00;49309.72;5136207;27;20247;-75
2022/10/15 03:10:47;;;;;;;5.70;4.43;;;;;;;-141.28;100.00;49305.78;5144773;27;20198;-75
2022/10/15 03:13:14;;;;;;;8.90;4.93;;;;;;;-141.28;100.00;49309.72;5143442;27;20230;-76
2022/10/15 03:15:41;;;;;;;10.60;4.87;;;;;;;-141.28;100.00;49352.88;5128285;27;20209;-75
2022/10/15 03:18:08;;;;;;;11.40;4.70;;;;;;;-141.28;100.00;49341.13;5135335;27;20585;-77
2022/10/15 03:20:35;;;;;;;9.53;5.20;;;;;;;-141.28;100.00;49333.25;5134621;27;20259;-80
2022/10/15 03:23:02;;;;;;;8.67;5.90;;;;;;;-141.28;100.00;49348.97;5134253;27;20206;-77
2022/10/15 03:25:30;;;;;;;9.20;5.73;;;;;;;-141.28;100.00;49356.81;5134281;27;20246;-76
2022/10/15 03:27:59;;;;;;;6.50;4.93;;;;;;;-141.28;100.00;49345.03;5133618;27;20224;-79
2022/10/15 03:30:26;;;;;;;7.90;4.93;;;;;;;-141.28;100.00;49352.88;5133156;27;20703;-78
2022/10/15 03:32:53;;;;;;;8.60;5.03;;;;;;;-141.28;100.00;49345.03;5133207;27;20692;-76
2022/10/15 03:35:20;;;;;;;5.70;4.73;;;;;;;-141.28;100.00;49345.03;5133646;27;20198;-75
2022/10/15 03:37:46;;;;;;;6.57;5.00;;;;;;;-141.28;100.00;49352.88;5132741;27;20210;-76
2022/10/15 03:40:13;;;;;;;5.40;4.90;;;;;;;-141.28;100.00;49354.84;5133776;27;20248;-76
2022/10/15 03:42:42;;;;;;;7.37;5.10;;;;;;;-141.28;100.00;49360.75;5134357;27;20203;-77
2022/10/15 03:45:09;;;;;;;10.90;5.43;;;;;;;-141.28;100.00;49356.81;5134972;27;20251;-75
2022/10/15 03:47:37;;;;;;;6.67;4.97;;;;;;;-141.28;100.00;49356.81;5136546;27;20202;-76
2022/10/15 03:50:04;;;;;;;12.57;5.50;;;;;;;-141.28;100.00;49345.03;5136618;27;20199;-76
2022/10/15 03:52:31;;;;;;;7.07;4.63;;;;;;;-141.28;100.00;49374.47;5136938;27;20289;-74
2022/10/15 03:54:59;;;;;;;7.27;5.03;;;;;;;-141.28;100.00;49352.88;5117912;27;20198;-76
2022/10/15 03:57:27;;;;;;;6.10;4.60;;;;;;;-141.28;100.00;49352.88;5135008;27;20221;-75
2022/10/15 03:59:56;;;;;;;7.53;5.30;;;;;;;-141.28;100.00;49360.75;5136582;27;20237;-75
2022/10/15 04:02:24;;;;;;;7.43;4.80;;;;;;;-141.28;100.00;49348.97;5135898;27;20251;-79
2022/10/15 04:04:53;;;;;;;8.33;5.27;;;;;;;-141.28;100.00;49341.13;5134868;27;20203;-77
2022/10/15 04:07:20;;;;;;;10.53;6.30;;;;;;;-141.28;100.00;49378.41;5133216;27;20313;-77
2022/10/15 04:09:47;;;;;;;17.57;6.00;;;;;;;-141.28;100.00;49380.34;5114766;27;20556;-76
2022/10/15 04:12:15;;;;;;;8.80;5.73;;;;;;;-141.28;100.00;49380.34;5114505;27;20202;-76
2022/10/15 04:14:44;;;;;;;16.00;6.77;;;;;;;-141.28;100.00;49384.28;5133882;27;20595;-75
2022/10/15 04:17:13;;;;;;;10.93;5.27;;;;;;;-141.28;100.00;49407.84;5134195;27;20202;-76
2022/10/15 04:19:40;;;;;;;10.03;5.40;;;;;;;-141.28;100.00;49380.34;5136477;27;20233;-78
2022/10/15 04:22:08;;;;;;;11.53;5.37;;;;;;;-141.28;100.00;49407.84;5134328;27;20200;-75
2022/10/15 04:24:35;;;;;;;6.37;5.07;;;;;;;-141.28;100.00;49411.75;5133023;28;20206;-77
2022/10/15 04:27:02;;;;;;;8.67;5.43;;;;;;;-141.28;100.00;49396.06;5135870;28;20231;-73
2022/10/15 04:29:29;;;;;;;9.23;6.10;;;;;;;-141.28;100.00;49437.25;5152518;28;20214;-75
2022/10/15 04:31:56;;;;;;;9.57;6.00;;;;;;;-141.28;100.00;49435.31;5142773;28;20584;-79
2022/10/15 04:34:25;;;;;;;9.63;5.47;;;;;;;-141.28;100.00;49452.97;5133100;28;20579;-78
2022/10/15 04:36:52;;;;;;;13.53;5.90;;;;;;;-141.28;100.00;49452.97;5132867;28;20206;-76
2022/10/15 04:39:19;;;;;;;7.20;5.13;;;;;;;-141.28;100.00;49478.47;5133426;28;20229;-76
2022/10/15 04:41:46;;;;;;;11.03;5.30;;;;;;;-141.28;100.00;49466.69;5132869;28;20208;-77
2022/10/15 04:44:13;;;;;;;10.07;6.07;;;;;;;-141.28;100.00;49460.81;5133473;28;20665;-76
2022/10/15 04:46:40;;;;;;;8.93;6.20;;;;;;;-141.28;100.00;49458.84;5133445;28;20202;-76
2022/10/15 04:49:07;;;;;;;14.67;7.00;;;;;;;-141.28;100.00;49482.41;5132944;28;20202;-76
2022/10/15 04:51:36;;;;;;;20.90;8.10;;;;;;;-141.28;100.00;49472.59;5133766;28;20198;-75
2022/10/15 04:54:04;;;;;;;17.03;6.90;;;;;;;-141.28;100.00;49454.94;5114802;28;20202;-77
2022/10/15 04:56:31;;;;;;;14.83;7.23;;;;;;;-141.28;100.00;49458.84;5133288;27;20198;-77
2022/10/15 04:58:58;;;;;;;17.70;8.10;;;;;;;-141.28;100.00;49419.59;5133275;28;20228;-75
2022/10/15 05:01:26;;;;;;;27.57;9.63;;;;;;;-141.28;100.00;49484.34;5133932;28;20206;-76
2022/10/15 05:03:53;;;;;;;16.37;10.47;;;;;;;-141.28;100.00;49502.03;5132909;28;20202;-77
2022/10/15 05:06:21;;;;;;;19.87;12.37;;;;;;;-141.28;100.00;49452.97;5134370;28;20210;-76
2022/10/15 05:08:52;;;;;;;18.47;10.60;;;;;;;-141.28;100.00;49494.16;5132756;28;20237;-77
2022/10/15 05:11:21;;;;;;;29.63;12.10;;;;;;;-141.28;100.00;49507.91;5132840;28;20202;-75
2022/10/15 05:14:06;;;;;;;23.43;11.37;;;;;;;-141.28;100.00;49529.50;5133065;28;20224;-75
2022/10/15 05:16:34;;;;;;;22.20;11.07;;;;;;;-141.28;100.00;49509.88;5132471;28;20285;-76
2022/10/15 05:19:03;;;;;;;31.97;10.70;;;;;;;-141.28;100.00;49535.38;5132609;28;20406;-76
2022/10/15 05:21:30;;;;;;;25.33;10.70;;;;;;;-141.28;100.00;49525.56;5132537;28;20194;-76
2022/10/15 05:23:59;;;;;;;35.17;10.13;;;;;;;-141.28;100.00;49519.69;5122176;28;20224;-76
2022/10/15 05:26:29;;;;;;;21.60;8.60;;;;;;;-141.28;100.00;49484.34;5131958;28;20190;-79
2022/10/15 05:28:56;;;;;;;28.30;8.07;;;;;;;-141.28;100.00;49545.19;5134477;27;20588;-76
2022/10/15 05:31:26;;;;;;;30.27;8.60;;;;;;;-141.28;100.00;49545.19;5135946;27;20197;-78
2022/10/15 05:33:56;;;;;;;61.97;12.60;;;;;;;-141.28;100.00;49566.78;5135561;27;20250;-76
2022/10/15 05:36:24;;;;;;;29.77;7.60;;;;;;;-141.28;100.00;49568.75;5135759;27;20653;-76
2022/10/15 05:38:53;;;;;;;15.23;7.23;;;;;;;-141.28;100.00;49580.50;5135729;27;20203;-76
2022/10/15 05:41:22;;;;;;;34.10;7.27;;;;;;;-141.28;100.00;49586.41;5135545;27;20297;-81
2022/10/15 05:43:51;;;;;;;25.17;6.90;;;;;;;-141.28;100.00;49584.44;5135907;27;20584;-76
2022/10/15 05:46:19;;;;;;;18.63;6.90;;;;;;;-141.28;100.00;49643.31;5135924;27;20676;-75
2022/10/15 05:48:49;;;;;;;20.90;6.90;;;;;;;-141.28;100.00;49643.31;5135409;27;20199;-76
2022/10/15 05:51:15;;;;;;;11.00;6.90;;;;;;;-141.28;100.00;49666.84;5138636;27;20249;-74
2022/10/15 05:53:45;;;;;;;15.83;7.03;;;;;;;-141.28;100.00;49660.97;5138280;27;20206;-79
2022/10/15 05:56:13;;;;;;;13.77;6.23;;;;;;;-141.28;100.00;49664.91;5133295;27;20214;-78
2022/10/15 05:58:41;;;;;;;25.27;7.20;;;;;;;-141.28;100.00;49623.69;5125271;27;20715;-80
2022/10/15 06:01:09;;;;;;;13.80;5.97;;;;;;;-141.28;100.00;49604.06;5136410;27;20313;-76
2022/10/15 06:03:37;;;;;;;12.90;5.57;;;;;;;-141.28;100.00;49641.34;5136815;27;20209;-80
2022/10/15 06:06:04;;;;;;;11.90;6.10;;;;;;;-141.28;100.00;49631.53;5135430;27;20235;-76
2022/10/15 06:08:33;;;;;;;14.40;6.83;;;;;;;-141.28;100.00;49625.66;5119965;27;20230;-78
2022/10/15 06:11:03;;;;;;;14.30;7.00;;;;;;;-141.28;100.00;49635.47;5126712;27;20210;-81
2022/10/15 06:13:32;;;;;;;10.03;5.70;;;;;;;-141.28;100.00;49615.84;5135906;27;20202;-76
2022/10/15 06:16:03;;;;;;;11.60;5.87;;;;;;;-141.28;100.00;49619.75;5135964;27;20247;-75
2022/10/15 06:18:30;;;;;;;11.77;6.27;;;;;;;-141.28;100.00;49627.59;5126883;27;20202;-74
2022/10/15 06:21:00;;;;;;;8.70;5.80;;;;;;;-141.28;100.00;49613.88;5145591;27;20228;-78
2022/10/15 06:23:26;;;;;;;13.10;6.63;;;;;;;-141.28;100.00;49631.53;5138013;27;20202;-76
2022/10/15 06:25:54;;;;;;;18.70;7.07;;;;;;;-141.28;100.00;49611.91;5142830;27;20580;-76
2022/10/15 06:28:21;;;;;;;12.77;7.13;;;;;;;-141.28;100.00;49627.59;5141186;27;20202;-76
2022/10/15 06:30:48;;;;;;;14.67;7.97;;;;;;;-141.28;100.00;49664.91;5141878;27;20199;-76
2022/10/15 06:33:17;;;;;;;13.50;7.43;;;;;;;-141.28;100.00;49721.81;5138202;27;20214;-80
2022/10/15 06:35:45;;;;;;;13.57;7.17;;;;;;;-141.28;100.00;49741.44;5135327;27;20722;-76
2022/10/15 06:38:12;;;;;;;13.13;8.03;;;;;;;-141.28;100.00;49747.31;5135439;27;20198;-78
2022/10/15 06:40:39;;;;;;;10.97;7.43;;;;;;;-141.28;100.00;49749.28;5134562;27;20224;-77
2022/10/15 06:43:08;;;;;;;16.93;6.90;;;;;;;-141.28;100.00;49757.13;5135146;27;20200;-79
2022/10/15 06:45:38;;;;;;;13.77;6.97;;;;;;;-141.28;100.00;49819.94;5135024;27;20194;-77
2022/10/15 06:48:06;;;;;;;17.97;7.10;;;;;;;-141.28;100.00;49784.59;5134995;27;20210;-77
2022/10/15 06:50:39;;;;;;;12.40;7.23;;;;;;;-141.28;100.00;49953.38;5133881;27;20206;-77
2022/10/15 06:53:07;;;;;;;10.83;6.90;;;;;;;-141.28;100.00;49927.88;5134262;27;20210;-78
2022/10/15 06:55:35;;;;;;;11.47;6.23;;;;;;;-141.28;100.00;49971.03;5115763;27;20275;-77
2022/10/15 06:58:02;;;;;;;10.33;6.03;;;;;;;-141.28;100.00;49992.63;5134249;27;20732;-79
2022/10/15 07:00:29;;;;;;;13.70;6.10;;;;;;;-141.28;100.00;50147.69;5134106;27;20222;-78
2022/10/15 07:02:57;;;;;;;9.03;6.33;;;;;;;-141.28;100.00;50255.63;5134212;27;20198;-75
2022/10/15 07:05:24;;;;;;;9.20;5.70;;;;;;;-141.28;100.00;50424.44;5134138;27;20676;-79
2022/10/15 07:07:53;;;;;;;13.23;5.80;;;;;;;-141.28;100.00;50373.38;5133513;27;20234;-77
2022/10/15 07:10:22;;;;;;;8.67;4.93;;;;;;;-141.28;100.00;50489.19;5133187;27;20594;-80
2022/10/15 07:12:49;;;;;;;12.50;4.73;;;;;;;-141.28;100.00;50610.91;5134054;27;20201;-80
2022/10/15 07:15:19;;;;;;;8.10;4.60;;;;;;;-141.28;100.00;50844.50;5134493;27;20194;-76
2022/10/15 07:17:48;;;;;;;9.20;5.63;;;;;;;-141.28;100.00;50683.53;5134216;27;20195;-78
2022/10/15 07:20:15;;;;;;;8.13;5.27;;;;;;;-141.28;100.00;50667.81;5116103;27;20233;-75
2022/10/15 07:22:42;;;;;;;8.67;5.70;;;;;;;-141.28;100.00;50652.13;5133540;27;20690;-77
2022/10/15 07:25:12;;;;;;;11.03;5.43;;;;;;;-141.28;100.00;50624.63;5134366;27;20205;-75
2022/10/15 07:27:39;;;;;;;7.93;4.60;;;;;;;-141.28;100.00;50626.59;5134133;27;20202;-77
2022/10/15 07:30:08;;;;;;;7.27;4.33;;;;;;;-141.28;100.00;50628.56;5133631;27;20262;-77
2022/10/15 07:32:36;;;;;;;6.17;4.23;;;;;;;-141.28;100.00;50595.19;5133709;27;20247;-80
2022/10/15 07:35:05;;;;;;;9.53;4.30;;;;;;;-141.28;100.00;50573.59;5133389;27;20202;-80
2022/10/15 07:37:33;;;;;;;6.50;4.50;;;;;;;-141.28;100.00;50510.78;5132732;27;20210;-75
2022/10/15 07:40:04;;;;;;;6.90;4.23;;;;;;;-141.28;100.00;50661.94;5132157;27;20251;-77
2022/10/15 07:42:35;;;;;;;7.77;5.20;;;;;;;-141.28;100.00;50832.72;5132383;27;20623;-78
2022/10/15 07:45:03;;;;;;;8.20;5.10;;;;;;;-141.28;100.00;50638.38;5119893;27;20206;-79
2022/10/15 07:47:30;;;;;;;9.20;4.93;;;;;;;-141.28;100.00;50589.31;5132818;27;20611;-75
2022/10/15 07:49:59;;;;;;;8.63;4.80;;;;;;;-141.28;100.00;50840.56;5119605;27;20198;-77
2022/10/15 07:52:27;;;;;;;10.20;4.47;;;;;;;-141.28;100.00;51076.16;5132259;27;20567;-79
2022/10/15 07:54:54;;;;;;;11.33;5.00;;;;;;;-141.28;100.00;51217.50;5133191;27;20201;-77
2022/10/15 07:57:22;;;;;;;9.77;4.47;;;;;;;-141.28;100.00;51260.69;5133128;27;20233;-76
2022/10/15 07:59:51;;;;;;;8.00;4.97;;;;;;;-141.28;100.00;51460.97;5133521;27;20229;-78
2022/10/15 08:02:19;;;;;;;5.23;4.27;;;;;;;-141.28;100.00;51462.94;5135548;27;20252;-78
2022/10/15 08:04:46;;;;;;;6.50;4.90;;;;;;;-141.28;100.00;51460.97;5133934;27;20206;-76
2022/10/15 08:07:15;;;;;;;5.47;4.43;;;;;;;-141.28;100.00;51178.25;5132962;27;20205;-76
2022/10/15 08:09:42;;;;;;;7.17;4.80;;;;;;;-141.28;100.00;51246.97;5133768;27;20672;-77
2022/10/15 08:12:13;;;;;;;9.13;4.90;;;;;;;-141.28;100.00;51525.75;5133459;27;20214;-77
2022/10/15 08:14:40;;;;;;;13.40;4.70;;;;;;;-141.28;100.00;51553.25;5137665;27;20202;-77
2022/10/15 08:17:08;;;;;;;8.17;4.80;;;;;;;-141.28;100.00;51508.09;5138512;27;20205;-79
2022/10/15 08:19:35;;;;;;;7.90;4.30;;;;;;;-141.28;100.00;51409.91;5137650;27;20193;-78
2022/10/15 08:22:03;;;;;;;6.33;4.43;;;;;;;-141.28;100.00;51337.28;5117086;27;20225;-76
2022/10/15 08:24:30;;;;;;;8.00;4.43;;;;;;;-141.28;100.00;51290.16;5136408;27;20194;-79
2022/10/15 08:26:57;;;;;;;8.33;4.40;;;;;;;-141.28;100.00;51072.22;5136529;27;20221;-80
2022/10/15 08:29:24;;;;;;;7.33;4.23;;;;;;;-141.28;100.00;51031.00;5134971;27;20209;-79
2022/10/15 08:31:52;;;;;;;6.50;4.00;;;;;;;-141.28;100.00;50832.72;5135569;28;20210;-78
2022/10/15 08:34:20;;;;;;;6.40;4.53;;;;;;;-141.28;100.00;50809.16;5136269;28;20198;-76
2022/10/15 08:36:48;;;;;;;11.70;4.87;;;;;;;-141.28;100.00;51015.28;5135041;28;20274;-80
2022/10/15 08:39:15;;;;;;;7.63;4.33;;;;;;;-141.28;100.00;50966.22;5135570;28;20757;-78
2022/10/15 08:41:47;;;;;;;6.70;4.50;;;;;;;-141.28;100.00;50946.59;5135130;28;20233;-76
2022/10/15 08:44:21;;;;;;;6.63;4.40;;;;;;;-141.28;100.00;50852.34;5136915;28;20293;-76
2022/10/15 08:46:52;;;;;;;6.03;4.10;;;;;;;-141.28;100.00;50685.50;5133181;28;20257;-79
2022/10/15 08:49:30;;;;;;;10.13;4.50;;;;;;;-141.28;100.00;50648.19;5132971;28;20205;-79
2022/10/15 08:52:07;;;;;;;7.77;4.23;;;;;;;-141.28;100.00;50868.06;5134365;28;20214;-76
2022/10/15 08:54:35;;;;;;;7.23;4.10;;;;;;;-141.28;100.00;51013.31;5133347;28;20202;-78
2022/10/15 08:57:11;;;;;;;6.07;4.10;;;;;;;-141.28;100.00;51021.19;5131751;27;20308;-76
2022/10/15 08:59:44;;;;;;;10.97;4.53;;;;;;;-141.28;100.00;50966.22;5132582;28;20205;-80
2022/10/15 09:02:19;;;;;;;6.53;4.17;;;;;;;-141.28;100.00;50820.94;5132468;28;20226;-81
2022/10/15 09:04:57;;;;;;;6.77;4.17;;;;;;;-141.28;100.00;50477.44;5135416;27;20195;-79
2022/10/15 09:07:33;;;;;;;10.13;4.27;;;;;;;-141.28;100.00;50247.78;5138327;27;20230;-76
2022/10/15 09:10:12;;;;;;;8.67;4.10;;;;;;;-141.28;100.00;50475.47;5136851;27;20217;-77
2022/10/15 09:12:52;;;;;;;7.50;4.30;;;;;;;-141.28;100.00;50514.72;5136641;27;20202;-76
2022/10/15 09:15:23;;;;;;;6.30;3.80;;;;;;;-141.28;100.00;50487.25;5136063;27;20194;-76
2022/10/15 09:17:52;;;;;;;5.00;4.10;;;;;;;-141.28;100.00;50514.72;5136561;27;20243;-76
2022/10/15 09:20:26;;;;;;;6.07;3.60;;;;;;;-141.28;100.00;50532.38;5136153;27;20295;-80
2022/10/15 09:22:53;;;;;;;9.67;3.80;;;;;;;-141.28;100.00;50420.50;5136376;27;20285;-78
2022/10/15 09:25:22;;;;;;;7.73;3.93;;;;;;;-141.28;100.00;50479.38;5142194;27;20202;-75
2022/10/15 09:27:51;;;;;;;5.00;3.60;;;;;;;-141.28;100.00;50428.34;5146547;27;20213;-77
2022/10/15 09:30:28;;;;;;;4.90;3.97;;;;;;;-141.28;100.00;50499.00;5123844;27;20206;-76
2022/10/15 09:33:02;;;;;;;5.10;4.10;;;;;;;-141.28;100.00;50463.69;5117546;27;20205;-78
2022/10/15 09:35:38;;;;;;;6.50;4.40;;;;;;;-141.28;100.00;50467.59;5136206;27;20202;-79
2022/10/15 09:38:20;;;;;;;5.80;4.60;;;;;;;-141.28;100.00;50188.91;5135693;27;20684;-78
2022/10/15 09:41:09;;;;;;;5.67;4.27;;;;;;;-141.28;100.00;50273.28;5136260;27;20250;-79
2022/10/15 09:43:40;;;;;;;5.63;4.07;;;;;;;-141.28;100.00;50369.47;5126078;27;20202;-79
2022/10/15 09:46:09;;;;;;;8.40;4.23;;;;;;;-141.28;100.00;50483.31;5135703;27;20274;-78
2022/10/15 09:48:42;;;;;;;8.00;4.93;;;;;;;-141.28;100.00;50440.13;5135164;27;20206;-77
2022/10/15 09:51:21;;;;;;;8.23;5.23;;;;;;;-141.28;100.00;50267.41;5135677;27;20202;-78
2022/10/15 09:53:59;;;;;;;7.23;4.80;;;;;;;-141.28;100.00;50236.00;5122598;27;20224;-77
2022/10/15 09:56:32;;;;;;;8.70;4.43;;;;;;;-141.28;100.00;50502.94;5135852;27;20210;-78
2022/10/15 09:59:00;;;;;;;6.53;3.87;;;;;;;-141.28;100.00;50416.56;5135525;27;20309;-78
2022/10/15 10:01:29;;;;;;;10.43;4.10;;;;;;;-141.28;100.00;50290.97;5135465;27;20712;-77
2022/10/15 10:04:11;;;;;;;7.73;4.37;;;;;;;-141.28;100.00;50290.97;5135424;27;20201;-80
2022/10/15 10:06:46;;;;;;;7.53;4.10;;;;;;;-141.28;100.00;50308.63;5135880;27;20209;-77
2022/10/15 10:09:19;;;;;;;5.73;3.87;;;;;;;-141.28;100.00;50169.28;5135244;27;20237;-76
2022/10/15 10:11:48;;;;;;;4.60;4.13;;;;;;;-141.28;100.00;50116.28;5135414;27;20205;-80
2022/10/15 10:14:27;;;;;;;5.47;3.93;;;;;;;-141.28;100.00;50128.06;5134154;27;20230;-76
2022/10/15 10:17:16;;;;;;;7.83;4.03;;;;;;;-141.28;100.00;50082.91;5134934;27;20210;-77
2022/10/15 10:19:46;;;;;;;8.33;3.80;;;;;;;-141.28;100.00;50098.63;5117681;27;20630;-77
2022/10/15 10:22:18;;;;;;;7.83;3.77;;;;;;;-141.28;100.00;49878.81;5134612;27;20244;-78
2022/10/15 10:24:46;;;;;;;4.47;3.50;;;;;;;-141.28;100.00;49784.59;5135229;27;20202;-77
2022/10/15 10:27:20;;;;;;;7.83;3.83;;;;;;;-141.28;100.00;49790.50;5134432;27;20238;-78
2022/10/15 10:29:55;;;;;;;5.83;3.37;;;;;;;-141.28;100.00;49804.22;5135230;27;20593;-76
2022/10/15 10:32:26;;;;;;;4.20;3.23;;;;;;;-141.28;100.00;49588.34;5134431;27;20205;-75
2022/10/15 10:34:56;;;;;;;5.70;3.47;;;;;;;-141.28;100.00;49556.97;5137953;27;20198;-77
2022/10/15 10:37:25;;;;;;;6.37;3.70;;;;;;;-141.28;100.00;49309.72;5117372;27;20198;-78
2022/10/15 10:39:53;;;;;;;5.40;3.63;;;;;;;-141.28;100.00;49329.34;5134963;27;20253;-77
2022/10/15 10:42:37;;;;;;;3.83;2.97;;;;;;;-141.28;100.00;49286.16;5134548;27;20254;-80
2022/10/15 10:45:21;;;;;;;4.63;3.00;;;;;;;-141.28;100.00;49305.78;5134264;27;20198;-79
2022/10/15 10:47:48;;;;;;;5.23;3.30;;;;;;;-141.28;100.00;49231.22;5134282;27;20202;-77
2022/10/15 10:50:36;;;;;;;5.60;3.50;;;;;;;-141.28;100.00;49246.94;5134294;27;20665;-78
2022/10/15 10:53:20;;;;;;;5.53;2.97;;;;;;;-141.28;100.00;49162.56;5134240;27;20267;-76
2022/10/15 10:55:51;;;;;;;4.33;2.93;;;;;;;-141.28;100.00;49199.84;5134868;27;20606;-78
2022/10/15 10:58:20;;;;;;;6.07;3.13;;;;;;;-141.28;100.00;49215.53;5138082;27;20222;-80
2022/10/15 11:00:49;;;;;;;7.50;4.00;;;;;;;-141.28;100.00;49219.47;5142253;27;20206;-75
2022/10/15 11:03:28;;;;;;;6.83;3.20;;;;;;;-141.28;100.00;49454.94;5140215;27;20221;-76
2022/10/15 11:06:01;;;;;;;3.57;3.07;;;;;;;-141.28;100.00;49184.13;5135028;27;20621;-77
2022/10/15 11:08:37;;;;;;;5.23;3.00;;;;;;;-141.28;100.00;49195.91;5134663;27;20222;-78
2022/10/15 11:11:12;;;;;;;8.93;3.40;;;;;;;-141.28;99.59;49203.75;5134535;27;20672;-79
2022/10/15 11:13:49;;;;;;;4.07;2.93;;;;;;;-141.28;100.00;49164.53;5134129;27;20202;-77
2022/10/15 11:16:25;;;;;;;7.83;2.87;;;;;;;-141.28;100.00;49221.41;5134056;27;20217;-76
2022/10/15 11:19:05;;;;;;;7.43;3.10;;;;;;;-141.28;100.00;49211.59;5135932;27;20197;-77
2022/10/15 11:21:51;;;;;;;3.97;3.30;;;;;;;-141.28;100.00;49246.94;5138784;27;20221;-76
2022/10/15 11:24:27;;;;;;;5.83;3.27;;;;;;;-141.28;100.00;49235.16;5134859;27;20251;-74